Time;durP1;ratioP1;P1;durP2;ratioP2;P2;SDS_P1;SDS_P2;PMS_P1;PMS_P2;Temp;Humidity;BMP_temperature;BMP_pressure;BME280_temperature;BME280_humidity;BME280_pressure;Samples;Min_cycle;Max_cycle;Signal;HPM_P1;HPM_P2
2023/03/13 00:02:06;;;;;;;26.98;4.88;;;;;;;;;;5058435;28;20627;-66
2023/03/13 00:04:32;;;;;;;28.52;5.05;;;;;;;;;;5058719;28;20333;-65
2023/03/13 00:06:57;;;;;;;25.90;4.20;;;;;;;;;;5057456;28;20542;-65
2023/03/13 00:09:23;;;;;;;24.90;5.15;;;;;;;;;;5061469;28;20263;-65
2023/03/13 00:11:48;;;;;;;26.33;4.43;;;;;;;;;;5055132;28;20192;-65
2023/03/13 00:14:13;;;;;;;28.02;5.18;;;;;;;;;;5052533;28;20272;-66
2023/03/13 00:16:39;;;;;;;28.38;4.90;;;;;;;;;;5050349;28;20201;-67
2023/03/13 00:19:06;;;;;;;23.08;4.60;;;;;;;;;;5056974;28;20190;-67
2023/03/13 00:21:32;;;;;;;29.13;4.95;;;;;;;;;;5060034;28;20198;-67
2023/03/13 00:24:00;;;;;;;22.02;4.93;;;;;;;;;;5051992;28;20327;-67
2023/03/13 00:26:27;;;;;;;33.22;5.40;;;;;;;;;;5058248;28;20674;-68
2023/03/13 00:28:52;;;;;;;25.27;5.03;;;;;;;;;;5055179;28;20216;-68
2023/03/13 00:31:30;;;;;;;24.65;4.75;;;;;;;;;;5052863;28;20194;-69
2023/03/13 00:33:59;;;;;;;28.10;5.13;;;;;;;;;;5046975;28;20233;-69
2023/03/13 00:36:30;;;;;;;34.15;5.30;;;;;;;;;;5066857;28;20276;-70
2023/03/13 00:38:56;;;;;;;26.20;4.50;;;;;;;;;;5060810;28;20200;-69
2023/03/13 00:41:24;;;;;;;30.13;4.95;;;;;;;;;;5058516;28;20189;-70
2023/03/13 00:43:50;;;;;;;27.10;5.13;;;;;;;;;;5063595;28;20197;-69
2023/03/13 00:46:19;;;;;;;23.65;4.78;;;;;;;;;;5053914;28;20206;-70
2023/03/13 00:48:45;;;;;;;34.72;5.53;;;;;;;;;;5065863;28;20264;-69
2023/03/13 00:51:11;;;;;;;28.83;4.90;;;;;;;;;;5055145;28;20192;-69
2023/03/13 00:53:37;;;;;;;23.98;5.05;;;;;;;;;;5067524;28;20719;-69
2023/03/13 00:56:09;;;;;;;23.13;5.15;;;;;;;;;;5051677;28;20197;-69
2023/03/13 00:58:37;;;;;;;25.50;4.63;;;;;;;;;;5066198;28;20188;-69
2023/03/13 01:01:25;;;;;;;22.02;5.05;;;;;;;;;;5049472;28;20204;-70
2023/03/13 01:03:56;;;;;;;30.33;5.10;;;;;;;;;;5059542;28;20193;-70
2023/03/13 01:06:25;;;;;;;25.92;4.30;;;;;;;;;;5062673;28;20216;-69
2023/03/13 01:08:50;;;;;;;28.10;5.80;;;;;;;;;;5047566;28;20657;-69
2023/03/13 01:11:18;;;;;;;27.13;5.07;;;;;;;;;;5057981;28;20199;-69
2023/03/13 01:13:44;;;;;;;26.02;5.18;;;;;;;;;;5054527;28;20562;-70
2023/03/13 01:16:13;;;;;;;28.85;6.00;;;;;;;;;;5053566;28;20364;-70
2023/03/13 01:18:41;;;;;;;33.55;5.68;;;;;;;;;;5051256;28;20189;-70
2023/03/13 01:21:07;;;;;;;32.00;4.88;;;;;;;;;;5050694;28;20280;-70
2023/03/13 01:23:32;;;;;;;25.77;5.10;;;;;;;;;;5047627;28;20327;-69
2023/03/13 01:25:58;;;;;;;24.13;5.45;;;;;;;;;;5054183;28;20279;-70
2023/03/13 01:28:25;;;;;;;25.65;4.70;;;;;;;;;;5051744;28;20656;-70
2023/03/13 01:30:50;;;;;;;26.45;5.55;;;;;;;;;;5068106;28;20188;-72
2023/03/13 01:33:16;;;;;;;24.55;5.75;;;;;;;;;;5058997;28;20197;-71
2023/03/13 01:35:42;;;;;;;28.90;4.60;;;;;;;;;;5052585;28;20197;-71
2023/03/13 01:38:07;;;;;;;25.80;5.18;;;;;;;;;;5056002;28;20184;-70
2023/03/13 01:40:45;;;;;;;27.83;4.80;;;;;;;;;;5058901;28;20303;-70
2023/03/13 01:43:22;;;;;;;26.23;4.80;;;;;;;;;;5054797;28;20276;-71
2023/03/13 01:45:56;;;;;;;27.27;4.75;;;;;;;;;;5056818;28;20220;-71
2023/03/13 01:48:34;;;;;;;29.98;5.28;;;;;;;;;;5062688;28;20528;-70
2023/03/13 01:51:03;;;;;;;26.33;4.75;;;;;;;;;;5052523;28;20196;-69
2023/03/13 01:53:31;;;;;;;26.35;4.40;;;;;;;;;;5055177;28;20640;-69
2023/03/13 01:55:58;;;;;;;28.73;4.72;;;;;;;;;;5048318;28;20220;-70
2023/03/13 01:58:24;;;;;;;26.38;4.85;;;;;;;;;;5058493;28;20200;-69
2023/03/13 02:00:50;;;;;;;23.88;4.40;;;;;;;;;;5058123;28;20762;-69
2023/03/13 02:03:19;;;;;;;27.67;5.25;;;;;;;;;;5054388;28;20249;-68
2023/03/13 02:05:48;;;;;;;21.73;4.75;;;;;;;;;;5059021;28;20613;-70
2023/03/13 02:08:30;;;;;;;23.58;4.32;;;;;;;;;;5058726;28;20204;-70
2023/03/13 02:11:09;;;;;;;23.25;4.30;;;;;;;;;;5062402;28;20217;-70
2023/03/13 02:13:34;;;;;;;20.10;4.32;;;;;;;;;;5052937;28;20774;-70
2023/03/13 02:16:00;;;;;;;24.90;5.00;;;;;;;;;;5061765;28;20205;-70
2023/03/13 02:18:26;;;;;;;22.98;4.38;;;;;;;;;;5057965;28;20584;-71
2023/03/13 02:20:57;;;;;;;23.77;4.45;;;;;;;;;;5057856;28;20410;-70
2023/03/13 02:23:41;;;;;;;16.40;4.22;;;;;;;;;;5053156;28;20197;-71
2023/03/13 02:26:06;;;;;;;17.00;4.05;;;;;;;;;;5054997;28;20478;-71
2023/03/13 02:28:38;;;;;;;20.27;4.75;;;;;;;;;;5059330;28;20193;-71
2023/03/13 02:31:04;;;;;;;15.02;4.03;;;;;;;;;;5055424;28;20193;-71
2023/03/13 02:33:34;;;;;;;15.50;4.13;;;;;;;;;;5058943;28;20200;-71
2023/03/13 02:36:01;;;;;;;16.55;4.28;;;;;;;;;;5050181;28;20200;-70
2023/03/13 02:38:29;;;;;;;21.17;3.97;;;;;;;;;;5061674;28;20270;-71
2023/03/13 02:40:56;;;;;;;18.52;4.60;;;;;;;;;;5051994;28;20229;-69
2023/03/13 02:43:35;;;;;;;13.90;3.53;;;;;;;;;;5063805;28;20596;-69
2023/03/13 02:46:27;;;;;;;14.13;3.80;;;;;;;;;;5062296;28;20288;-70
2023/03/13 02:48:54;;;;;;;21.48;4.10;;;;;;;;;;5061750;28;20265;-70
2023/03/13 02:51:35;;;;;;;13.95;4.18;;;;;;;;;;5058746;28;20193;-69
2023/03/13 02:54:05;;;;;;;14.45;3.92;;;;;;;;;;5056055;28;20302;-69
2023/03/13 02:56:33;;;;;;;18.52;4.25;;;;;;;;;;5057410;28;20724;-69
2023/03/13 02:58:58;;;;;;;17.00;3.88;;;;;;;;;;5055250;28;20308;-69
2023/03/13 03:01:24;;;;;;;18.02;4.25;;;;;;;;;;5052978;28;20251;-69
2023/03/13 03:03:49;;;;;;;15.43;4.70;;;;;;;;;;5051804;28;20202;-68
2023/03/13 03:06:15;;;;;;;16.80;4.95;;;;;;;;;;5052623;28;20276;-69
2023/03/13 03:08:42;;;;;;;12.82;4.38;;;;;;;;;;5054736;28;20276;-70
2023/03/13 03:11:08;;;;;;;14.93;4.70;;;;;;;;;;5055498;28;20196;-70
2023/03/13 03:13:33;;;;;;;12.65;4.05;;;;;;;;;;5064776;28;20516;-69
2023/03/13 03:15:59;;;;;;;14.25;4.40;;;;;;;;;;5050034;28;20380;-68
2023/03/13 03:18:24;;;;;;;11.23;4.60;;;;;;;;;;5052388;28;20184;-68
2023/03/13 03:20:49;;;;;;;16.15;4.18;;;;;;;;;;5056958;28;20218;-69
2023/03/13 03:23:15;;;;;;;11.00;3.97;;;;;;;;;;5053568;28;20201;-68
2023/03/13 03:25:40;;;;;;;13.82;4.05;;;;;;;;;;5064812;28;20184;-69
2023/03/13 03:28:06;;;;;;;12.20;4.05;;;;;;;;;;5064353;28;20215;-68
2023/03/13 03:30:31;;;;;;;8.52;4.13;;;;;;;;;;5064936;28;20307;-69
2023/03/13 03:32:56;;;;;;;12.50;3.92;;;;;;;;;;5066477;28;20185;-69
2023/03/13 03:35:22;;;;;;;19.42;4.50;;;;;;;;;;5053440;28;20802;-69
2023/03/13 03:37:50;;;;;;;11.70;4.30;;;;;;;;;;5068694;28;20192;-70
2023/03/13 03:40:16;;;;;;;14.70;5.88;;;;;;;;;;5063576;28;20452;-69
2023/03/13 03:42:41;;;;;;;12.43;4.57;;;;;;;;;;5058618;28;20200;-70
2023/03/13 03:45:07;;;;;;;18.15;5.85;;;;;;;;;;5049207;28;20189;-70
2023/03/13 03:47:32;;;;;;;13.00;4.55;;;;;;;;;;5048971;28;20264;-70
2023/03/13 03:49:57;;;;;;;12.93;5.32;;;;;;;;;;5051561;28;20281;-69
2023/03/13 03:52:23;;;;;;;10.23;4.53;;;;;;;;;;5050402;28;20208;-70
2023/03/13 03:54:48;;;;;;;9.93;4.70;;;;;;;;;;5060127;28;20550;-69
2023/03/13 03:57:14;;;;;;;12.18;4.78;;;;;;;;;;5061326;28;20545;-68
2023/03/13 03:59:39;;;;;;;21.67;6.05;;;;;;;;;;5049898;28;20196;-71
2023/03/13 04:02:04;;;;;;;9.45;5.70;;;;;;;;;;5052459;28;20288;-69
2023/03/13 04:04:30;;;;;;;10.68;5.10;;;;;;;;;;5047952;28;20555;-69
2023/03/13 04:06:55;;;;;;;14.63;4.93;;;;;;;;;;5062714;28;20623;-69
2023/03/13 04:09:20;;;;;;;12.60;5.20;;;;;;;;;;5049078;28;20552;-70
2023/03/13 04:11:46;;;;;;;10.20;5.18;;;;;;;;;;5054510;28;20199;-69
2023/03/13 04:14:11;;;;;;;7.15;4.45;;;;;;;;;;5058600;28;20287;-69
2023/03/13 04:16:37;;;;;;;7.15;4.80;;;;;;;;;;5050905;28;20201;-69
2023/03/13 04:19:02;;;;;;;10.32;5.28;;;;;;;;;;5067113;28;20422;-68
2023/03/13 04:21:27;;;;;;;9.57;5.45;;;;;;;;;;5054407;28;20213;-69
2023/03/13 04:23:53;;;;;;;9.93;4.95;;;;;;;;;;5048521;28;20217;-70
2023/03/13 04:26:18;;;;;;;11.25;5.32;;;;;;;;;;5050941;28;20186;-69
2023/03/13 04:28:43;;;;;;;10.27;5.00;;;;;;;;;;5048884;28;20210;-69
2023/03/13 04:31:09;;;;;;;7.07;4.53;;;;;;;;;;5062187;28;20242;-69
2023/03/13 04:33:35;;;;;;;9.82;5.13;;;;;;;;;;5063179;28;20249;-71
2023/03/13 04:36:01;;;;;;;9.43;5.72;;;;;;;;;;5046184;28;20549;-70
2023/03/13 04:38:26;;;;;;;10.20;5.47;;;;;;;;;;5056707;28;20209;-69
2023/03/13 04:40:52;;;;;;;9.63;5.28;;;;;;;;;;5056886;28;20216;-69
2023/03/13 04:43:17;;;;;;;9.60;5.30;;;;;;;;;;5062818;28;20204;-68
2023/03/13 04:45:42;;;;;;;9.95;5.10;;;;;;;;;;5059943;28;20242;-70
2023/03/13 04:48:08;;;;;;;8.05;5.22;;;;;;;;;;5052570;28;20637;-69
2023/03/13 04:50:33;;;;;;;6.78;5.10;;;;;;;;;;5052327;28;20500;-68
2023/03/13 04:52:59;;;;;;;9.57;6.32;;;;;;;;;;5054484;28;20193;-68
2023/03/13 04:55:24;;;;;;;10.00;4.70;;;;;;;;;;5047194;28;20674;-69
2023/03/13 04:57:49;;;;;;;10.00;5.32;;;;;;;;;;5056957;28;20312;-69
2023/03/13 05:00:15;;;;;;;7.70;4.80;;;;;;;;;;5065551;28;20220;-69
2023/03/13 05:02:40;;;;;;;8.27;4.95;;;;;;;;;;5054826;28;20222;-70
2023/03/13 05:05:06;;;;;;;6.90;5.00;;;;;;;;;;5061314;28;20250;-70
2023/03/13 05:07:31;;;;;;;9.00;5.43;;;;;;;;;;5056678;28;20199;-70
2023/03/13 05:09:57;;;;;;;8.35;5.65;;;;;;;;;;5057963;28;20410;-71
2023/03/13 05:12:22;;;;;;;9.18;5.55;;;;;;;;;;5063906;28;20250;-70
2023/03/13 05:14:49;;;;;;;9.55;5.88;;;;;;;;;;5053174;28;20337;-71
2023/03/13 05:17:16;;;;;;;8.27;5.85;;;;;;;;;;5064481;28;20180;-69
2023/03/13 05:19:41;;;;;;;9.30;5.90;;;;;;;;;;5055712;28;20230;-68
2023/03/13 05:22:07;;;;;;;8.95;6.00;;;;;;;;;;5062770;28;20775;-70
2023/03/13 05:24:32;;;;;;;7.78;6.05;;;;;;;;;;5060786;28;20192;-71
2023/03/13 05:26:58;;;;;;;11.60;6.95;;;;;;;;;;5062086;28;20587;-71
2023/03/13 05:29:23;;;;;;;9.02;6.30;;;;;;;;;;5048007;28;20269;-70
2023/03/13 05:31:48;;;;;;;9.43;6.22;;;;;;;;;;5056107;28;20193;-68
2023/03/13 05:34:14;;;;;;;9.50;6.43;;;;;;;;;;5056207;28;20633;-70
2023/03/13 05:36:39;;;;;;;17.50;7.18;;;;;;;;;;5049498;28;20204;-71
2023/03/13 05:39:04;;;;;;;11.20;7.47;;;;;;;;;;5047308;28;20759;-70
2023/03/13 05:41:30;;;;;;;14.25;8.30;;;;;;;;;;5054702;28;20243;-68
2023/03/13 05:43:55;;;;;;;12.75;8.02;;;;;;;;;;5048970;28;20189;-69
2023/03/13 05:46:20;;;;;;;10.35;8.10;;;;;;;;;;5058797;28;20192;-69
2023/03/13 05:48:46;;;;;;;12.23;8.30;;;;;;;;;;5066000;28;20189;-69
2023/03/13 05:51:12;;;;;;;13.70;8.80;;;;;;;;;;5059667;28;20525;-68
2023/03/13 05:53:37;;;;;;;11.55;8.07;;;;;;;;;;5051561;28;20725;-69
2023/03/13 05:56:03;;;;;;;13.50;9.25;;;;;;;;;;5062668;28;20204;-68
2023/03/13 05:58:28;;;;;;;12.18;8.60;;;;;;;;;;5060024;28;20660;-68
2023/03/13 06:00:53;;;;;;;11.70;8.05;;;;;;;;;;5055136;28;20213;-68
2023/03/13 06:03:19;;;;;;;12.80;8.52;;;;;;;;;;5055489;28;20540;-68
2023/03/13 06:05:44;;;;;;;17.05;9.00;;;;;;;;;;5061208;28;20204;-68
2023/03/13 06:08:09;;;;;;;12.88;8.20;;;;;;;;;;5062128;28;20197;-68
2023/03/13 06:10:35;;;;;;;13.48;8.65;;;;;;;;;;5062195;28;20224;-67
2023/03/13 06:13:00;;;;;;;17.73;9.15;;;;;;;;;;5051477;28;20599;-68
2023/03/13 06:15:26;;;;;;;14.38;8.38;;;;;;;;;;5056858;28;20199;-68
2023/03/13 06:17:51;;;;;;;10.52;7.75;;;;;;;;;;5061310;28;20192;-67
2023/03/13 06:20:16;;;;;;;12.70;7.72;;;;;;;;;;5054002;28;20541;-68
2023/03/13 06:22:42;;;;;;;14.38;8.98;;;;;;;;;;5057232;28;20254;-68
2023/03/13 06:25:08;;;;;;;13.07;8.00;;;;;;;;;;5053444;28;20443;-68
2023/03/13 06:27:34;;;;;;;14.68;7.30;;;;;;;;;;5055674;28;20189;-67
2023/03/13 06:29:59;;;;;;;10.25;6.90;;;;;;;;;;5049332;28;20598;-69
2023/03/13 06:32:25;;;;;;;9.48;6.80;;;;;;;;;;5062236;28;20193;-68
2023/03/13 06:34:51;;;;;;;12.48;7.38;;;;;;;;;;5053753;28;20746;-67
2023/03/13 06:37:16;;;;;;;12.05;7.47;;;;;;;;;;5056035;28;20574;-67
2023/03/13 06:39:41;;;;;;;11.95;6.97;;;;;;;;;;5059528;28;20217;-67
2023/03/13 06:42:07;;;;;;;11.05;6.88;;;;;;;;;;5055239;28;20282;-67
2023/03/13 06:44:32;;;;;;;11.45;6.65;;;;;;;;;;5066663;28;20292;-67
2023/03/13 06:46:58;;;;;;;12.40;6.65;;;;;;;;;;5065572;28;20189;-67
2023/03/13 06:49:23;;;;;;;9.50;6.30;;;;;;;;;;5069806;28;20291;-67
2023/03/13 06:51:48;;;;;;;10.95;6.72;;;;;;;;;;5061751;28;20182;-67
2023/03/13 06:54:14;;;;;;;11.60;6.15;;;;;;;;;;5056502;28;20330;-67
2023/03/13 06:56:39;;;;;;;14.70;6.90;;;;;;;;;;5058748;28;20217;-69
2023/03/13 06:59:05;;;;;;;11.57;5.90;;;;;;;;;;5054098;28;20189;-67
2023/03/13 07:01:30;;;;;;;12.85;6.88;;;;;;;;;;5048937;28;20727;-67
2023/03/13 07:03:55;;;;;;;12.38;5.95;;;;;;;;;;5049986;28;20201;-67
2023/03/13 07:06:21;;;;;;;9.10;5.97;;;;;;;;;;5050049;28;20654;-67
2023/03/13 07:08:46;;;;;;;8.82;6.20;;;;;;;;;;5050078;28;20649;-66
2023/03/13 07:11:13;;;;;;;11.18;5.75;;;;;;;;;;5062806;28;20196;-67
2023/03/13 07:13:39;;;;;;;10.63;5.68;;;;;;;;;;5067444;28;20332;-66
2023/03/13 07:16:10;;;;;;;12.45;6.55;;;;;;;;;;5055026;28;20287;-66
2023/03/13 07:18:37;;;;;;;10.95;5.25;;;;;;;;;;5067178;28;20211;-66
2023/03/13 07:21:06;;;;;;;10.35;5.50;;;;;;;;;;5069433;28;20276;-67
2023/03/13 07:23:33;;;;;;;12.30;6.20;;;;;;;;;;5051968;28;20676;-67
2023/03/13 07:26:01;;;;;;;8.20;5.25;;;;;;;;;;5049438;28;20205;-67
2023/03/13 07:28:29;;;;;;;9.95;5.03;;;;;;;;;;5057491;28;20192;-66
2023/03/13 07:30:55;;;;;;;7.78;4.53;;;;;;;;;;5054698;28;20208;-66
2023/03/13 07:33:20;;;;;;;8.48;4.53;;;;;;;;;;5046322;28;20189;-66
2023/03/13 07:35:50;;;;;;;11.90;5.00;;;;;;;;;;5051212;28;20548;-66
2023/03/13 07:38:16;;;;;;;10.05;4.70;;;;;;;;;;5046709;28;20189;-66
2023/03/13 07:40:50;;;;;;;7.95;4.28;;;;;;;;;;5051348;28;20289;-66
2023/03/13 07:43:15;;;;;;;8.43;4.32;;;;;;;;;;5046116;28;20201;-66
2023/03/13 07:45:59;;;;;;;9.63;3.97;;;;;;;;;;5055417;28;20278;-65
2023/03/13 07:48:35;;;;;;;10.95;4.25;;;;;;;;;;5049469;28;20220;-66
2023/03/13 07:51:01;;;;;;;9.05;4.07;;;;;;;;;;5056184;28;20629;-67
2023/03/13 07:53:27;;;;;;;10.48;3.60;;;;;;;;;;5053847;28;20188;-68
2023/03/13 07:55:58;;;;;;;8.10;3.45;;;;;;;;;;5053380;28;20192;-67
2023/03/13 07:58:25;;;;;;;10.98;3.65;;;;;;;;;;5059029;28;20189;-66
2023/03/13 08:00:51;;;;;;;9.82;3.83;;;;;;;;;;5056863;28;20638;-66
2023/03/13 08:03:17;;;;;;;8.30;3.80;;;;;;;;;;5052349;28;20280;-66
2023/03/13 08:05:42;;;;;;;8.43;3.47;;;;;;;;;;5062585;28;20195;-66
2023/03/13 08:08:07;;;;;;;9.60;3.42;;;;;;;;;;5053047;28;20367;-66
2023/03/13 08:10:33;;;;;;;10.40;3.38;;;;;;;;;;5053424;28;20683;-66
2023/03/13 08:12:58;;;;;;;9.15;3.72;;;;;;;;;;5056922;28;20180;-66
2023/03/13 08:15:27;;;;;;;7.78;2.90;;;;;;;;;;5051630;28;20378;-66
2023/03/13 08:17:53;;;;;;;9.55;3.38;;;;;;;;;;5052051;28;20213;-65
2023/03/13 08:20:18;;;;;;;10.80;3.38;;;;;;;;;;5061378;28;20632;-65
2023/03/13 08:22:45;;;;;;;10.35;2.80;;;;;;;;;;5058591;28;20212;-66
2023/03/13 08:25:11;;;;;;;11.43;3.10;;;;;;;;;;5054443;28;21750;-66
2023/03/13 08:27:36;;;;;;;6.97;2.80;;;;;;;;;;5049124;28;20197;-66
2023/03/13 08:30:02;;;;;;;10.00;2.85;;;;;;;;;;5058056;28;20196;-65
2023/03/13 08:32:27;;;;;;;6.55;2.90;;;;;;;;;;5055847;28;20232;-66
2023/03/13 08:34:53;;;;;;;10.15;2.88;;;;;;;;;;5062432;28;20224;-66
2023/03/13 08:37:18;;;;;;;10.88;2.97;;;;;;;;;;5056417;28;20193;-65
2023/03/13 08:39:44;;;;;;;8.75;3.22;;;;;;;;;;5051658;28;20470;-65
2023/03/13 08:42:13;;;;;;;8.57;2.75;;;;;;;;;;5058000;28;20347;-66
2023/03/13 08:44:38;;;;;;;14.38;3.20;;;;;;;;;;5046311;28;20262;-66
2023/03/13 08:47:05;;;;;;;8.05;2.95;;;;;;;;;;5064227;28;20461;-65
2023/03/13 08:49:30;;;;;;;6.10;3.08;;;;;;;;;;5064847;28;20263;-66
2023/03/13 08:51:56;;;;;;;7.78;3.35;;;;;;;;;;5052065;28;20620;-65
2023/03/13 08:54:21;;;;;;;7.93;2.85;;;;;;;;;;5053039;28;20250;-65
2023/03/13 08:56:47;;;;;;;10.82;2.90;;;;;;;;;;5054883;28;20189;-66
2023/03/13 08:59:14;;;;;;;7.32;2.63;;;;;;;;;;5067774;28;20220;-66
2023/03/13 09:01:39;;;;;;;6.30;2.92;;;;;;;;;;5048538;28;20205;-66
2023/03/13 09:04:05;;;;;;;8.55;3.40;;;;;;;;;;5048753;28;20197;-66
2023/03/13 09:06:36;;;;;;;11.07;3.35;;;;;;;;;;5051811;28;20222;-66
2023/03/13 09:09:02;;;;;;;8.02;2.63;;;;;;;;;;5065244;28;20197;-66
2023/03/13 09:11:28;;;;;;;6.65;3.13;;;;;;;;;;5052723;28;20182;-67
2023/03/13 09:13:54;;;;;;;6.90;3.03;;;;;;;;;;5059758;28;20195;-66
2023/03/13 09:16:22;;;;;;;5.78;2.55;;;;;;;;;;5048272;28;20650;-66
2023/03/13 09:18:49;;;;;;;8.30;3.60;;;;;;;;;;5048142;28;20451;-66
2023/03/13 09:21:17;;;;;;;8.13;3.08;;;;;;;;;;5047754;28;20198;-67
2023/03/13 09:23:42;;;;;;;8.27;2.47;;;;;;;;;;5047368;28;20197;-66
2023/03/13 09:26:08;;;;;;;5.60;2.50;;;;;;;;;;5048378;28;20657;-66
2023/03/13 09:28:34;;;;;;;7.88;2.38;;;;;;;;;;5063322;28;20185;-66
2023/03/13 09:31:19;;;;;;;6.07;2.40;;;;;;;;;;5067802;28;20177;-66
2023/03/13 09:33:46;;;;;;;6.72;2.10;;;;;;;;;;5047658;28;20263;-66
2023/03/13 09:36:12;;;;;;;5.43;2.28;;;;;;;;;;5052077;28;20215;-66
2023/03/13 09:38:38;;;;;;;4.55;1.85;;;;;;;;;;5053304;28;20185;-66
2023/03/13 09:41:18;;;;;;;6.70;1.92;;;;;;;;;;5057679;28;20197;-66
2023/03/13 09:43:46;;;;;;;4.95;1.92;;;;;;;;;;5047841;28;20257;-66
2023/03/13 09:46:25;;;;;;;5.18;1.70;;;;;;;;;;5047905;28;20189;-67
2023/03/13 09:48:57;;;;;;;3.97;1.48;;;;;;;;;;5051475;28;20195;-67
2023/03/13 09:51:35;;;;;;;4.93;1.27;;;;;;;;;;5074843;28;20341;-66
2023/03/13 09:54:27;;;;;;;4.78;1.30;;;;;;;;;;5049993;28;20235;-69
2023/03/13 09:57:02;;;;;;;5.68;1.60;;;;;;;;;;5053506;28;20177;-67
2023/03/13 09:59:45;;;;;;;5.63;1.65;;;;;;;;;;5061997;28;20723;-67
2023/03/13 10:02:31;;;;;;;4.90;1.30;;;;;;;;;;5046766;28;20283;-66
2023/03/13 10:05:14;;;;;;;3.95;1.40;;;;;;;;;;5065056;28;20565;-66
2023/03/13 10:07:40;;;;;;;3.22;0.88;;;;;;;;;;5066137;28;20191;-66
2023/03/13 10:10:24;;;;;;;2.67;1.23;;;;;;;;;;5046595;28;20189;-66
2023/03/13 10:12:54;;;;;;;2.95;1.50;;;;;;;;;;5047366;28;20204;-66
2023/03/13 10:15:47;;;;;;;6.05;1.30;;;;;;;;;;5047381;28;20181;-66
2023/03/13 10:18:22;;;;;;;7.38;1.67;;;;;;;;;;5048651;28;20286;-66
2023/03/13 10:20:51;;;;;;;3.47;1.10;;;;;;;;;;5057157;28;20209;-66
2023/03/13 10:23:37;;;;;;;6.82;1.40;;;;;;;;;;5051029;28;20205;-67
2023/03/13 10:26:03;;;;;;;3.58;1.40;;;;;;;;;;5049448;28;20193;-67
2023/03/13 10:28:28;;;;;;;4.25;1.35;;;;;;;;;;5054784;28;20200;-66
2023/03/13 10:31:07;;;;;;;6.20;1.63;;;;;;;;;;5047131;28;20667;-68
2023/03/13 10:33:35;;;;;;;6.55;1.27;;;;;;;;;;5066690;28;20430;-66
2023/03/13 10:36:10;;;;;;;4.80;1.23;;;;;;;;;;5060034;28;20739;-66
2023/03/13 10:38:53;;;;;;;3.95;1.55;;;;;;;;;;5057761;28;20271;-65
2023/03/13 10:41:21;;;;;;;3.17;0.93;;;;;;;;;;5062636;28;20208;-66
2023/03/13 10:43:52;;;;;;;3.15;1.10;;;;;;;;;;5065085;28;20251;-65
2023/03/13 10:46:29;;;;;;;5.45;1.10;;;;;;;;;;5061955;28;20676;-66
2023/03/13 10:48:55;;;;;;;4.32;1.50;;;;;;;;;;5056054;28;20287;-66
2023/03/13 10:51:23;;;;;;;4.53;1.20;;;;;;;;;;5059815;28;20255;-65
2023/03/13 10:53:50;;;;;;;3.33;1.10;;;;;;;;;;5053456;28;20559;-65
2023/03/13 10:56:24;;;;;;;4.80;1.38;;;;;;;;;;5060161;28;20189;-66
2023/03/13 10:58:52;;;;;;;2.45;1.13;;;;;;;;;;5060077;28;20200;-66
2023/03/13 11:01:21;;;;;;;5.88;1.52;;;;;;;;;;5068808;28;20303;-66
2023/03/13 11:03:49;;;;;;;4.85;1.40;;;;;;;;;;5058201;28;20193;-65
2023/03/13 11:06:27;;;;;;;4.90;1.17;;;;;;;;;;5060756;28;20209;-66
2023/03/13 11:09:10;;;;;;;5.20;1.60;;;;;;;;;;5057799;28;20209;-66
2023/03/13 11:11:45;;;;;;;2.92;1.33;;;;;;;;;;5066532;28;20317;-66
2023/03/13 11:14:17;;;;;;;4.22;1.50;;;;;;;;;;5053029;28;20185;-65
2023/03/13 11:17:12;;;;;;;6.10;1.52;;;;;;;;;;5062384;28;20185;-65
2023/03/13 11:20:04;;;;;;;2.92;1.42;;;;;;;;;;5051230;28;20213;-66
2023/03/13 11:22:48;;;;;;;4.32;1.50;;;;;;;;;;5058395;28;20664;-66
2023/03/13 11:25:21;;;;;;;7.57;1.38;;;;;;;;;;5063054;28;20215;-66
2023/03/13 11:28:10;;;;;;;3.72;1.55;;;;;;;;;;5057947;28;20189;-66
2023/03/13 11:30:56;;;;;;;3.03;1.30;;;;;;;;;;5059224;28;20212;-65
2023/03/13 11:33:32;;;;;;;4.22;1.33;;;;;;;;;;5061652;28;20246;-66
2023/03/13 11:36:15;;;;;;;6.03;1.42;;;;;;;;;;5058607;28;20199;-65
2023/03/13 11:38:45;;;;;;;4.55;1.52;;;;;;;;;;5066975;28;20605;-66
2023/03/13 11:41:10;;;;;;;2.95;1.20;;;;;;;;;;5060569;28;20554;-66
2023/03/13 11:43:54;;;;;;;4.65;1.90;;;;;;;;;;5069066;28;20310;-66
2023/03/13 11:46:27;;;;;;;2.63;1.27;;;;;;;;;;5068811;28;20188;-66
2023/03/13 11:49:09;;;;;;;5.43;1.63;;;;;;;;;;5068489;28;20322;-66
2023/03/13 11:51:43;;;;;;;4.93;1.60;;;;;;;;;;5064707;28;20704;-69
2023/03/13 11:54:36;;;;;;;6.43;1.70;;;;;;;;;;5065095;28;20184;-67
2023/03/13 11:57:28;;;;;;;5.65;1.60;;;;;;;;;;5066922;28;20184;-66
2023/03/13 11:59:56;;;;;;;5.88;1.20;;;;;;;;;;5048903;28;20236;-66
2023/03/13 12:02:26;;;;;;;5.88;1.20;;;;;;;;;;5059763;28;20778;-66
2023/03/13 12:04:56;;;;;;;5.25;1.40;;;;;;;;;;5052806;28;20184;-66
2023/03/13 12:07:35;;;;;;;4.22;1.50;;;;;;;;;;5068743;28;20203;-67
2023/03/13 12:10:02;;;;;;;4.18;1.52;;;;;;;;;;5060388;28;20226;-67
2023/03/13 12:12:40;;;;;;;4.88;1.27;;;;;;;;;;5057200;28;20781;-66
2023/03/13 12:15:23;;;;;;;2.85;1.15;;;;;;;;;;5047121;28;20555;-65
2023/03/13 12:18:11;;;;;;;2.53;1.23;;;;;;;;;;5061440;28;20199;-66
2023/03/13 12:21:11;;;;;;;3.53;1.00;;;;;;;;;;5049801;28;20668;-66
2023/03/13 12:23:40;;;;;;;4.32;1.20;;;;;;;;;;5049336;28;20208;-67
2023/03/13 12:26:11;;;;;;;2.00;1.02;;;;;;;;;;5051958;28;20279;-66
2023/03/13 12:29:05;;;;;;;3.08;1.02;;;;;;;;;;5061279;28;20189;-66
2023/03/13 12:31:41;;;;;;;3.25;1.05;;;;;;;;;;5049810;28;20341;-66
2023/03/13 12:34:50;;;;;;;3.00;1.27;;;;;;;;;;5058400;28;20228;-66
2023/03/13 12:37:15;;;;;;;3.45;1.23;;;;;;;;;;5053381;28;20283;-66
2023/03/13 12:39:48;;;;;;;2.28;1.10;;;;;;;;;;5055489;28;20368;-68
2023/03/13 12:42:39;;;;;;;3.70;1.15;;;;;;;;;;5048217;28;20193;-65
2023/03/13 12:45:07;;;;;;;1.85;0.88;;;;;;;;;;5047568;28;20623;-66
2023/03/13 12:47:54;;;;;;;3.08;1.15;;;;;;;;;;5055646;28;20238;-66
2023/03/13 12:50:47;;;;;;;2.97;0.95;;;;;;;;;;5053398;28;20238;-65
2023/03/13 12:53:40;;;;;;;3.08;0.98;;;;;;;;;;5062611;28;20186;-66
2023/03/13 12:56:11;;;;;;;2.92;1.15;;;;;;;;;;5052014;28;20193;-66
2023/03/13 12:58:46;;;;;;;4.00;1.23;;;;;;;;;;5062931;28;20563;-65
2023/03/13 13:01:26;;;;;;;4.10;1.52;;;;;;;;;;5067151;28;20196;-65
2023/03/13 13:03:57;;;;;;;2.42;0.90;;;;;;;;;;5056435;28;20246;-65
2023/03/13 13:06:23;;;;;;;4.40;0.80;;;;;;;;;;5063093;28;20196;-64
2023/03/13 13:08:51;;;;;;;3.30;0.88;;;;;;;;;;5065387;28;20532;-65
2023/03/13 13:11:38;;;;;;;2.90;1.20;;;;;;;;;;5047073;28;20239;-65
2023/03/13 13:14:15;;;;;;;5.05;1.30;;;;;;;;;;5058106;28;20201;-66
2023/03/13 13:16:48;;;;;;;4.30;0.95;;;;;;;;;;5049825;28;20673;-66
2023/03/13 13:19:22;;;;;;;4.00;0.82;;;;;;;;;;5067727;28;20695;-65
2023/03/13 13:22:25;;;;;;;5.05;0.95;;;;;;;;;;5060089;28;20211;-66
2023/03/13 13:24:52;;;;;;;2.63;0.80;;;;;;;;;;5058296;28;20232;-66
2023/03/13 13:27:35;;;;;;;3.88;0.85;;;;;;;;;;5053216;28;20264;-65
2023/03/13 13:30:15;;;;;;;8.00;1.02;;;;;;;;;;5056095;28;20205;-64
2023/03/13 13:32:45;;;;;;;6.20;1.23;;;;;;;;;;5066013;28;20192;-66
2023/03/13 13:35:11;;;;;;;4.28;1.15;;;;;;;;;;5052362;28;20897;-65
2023/03/13 13:37:38;;;;;;;2.60;0.95;;;;;;;;;;5057106;28;20185;-67
2023/03/13 13:40:15;;;;;;;4.05;1.20;;;;;;;;;;5050182;28;20190;-64
2023/03/13 13:42:52;;;;;;;4.13;1.10;;;;;;;;;;5052588;28;20255;-65
2023/03/13 13:45:25;;;;;;;4.35;1.25;;;;;;;;;;5066191;28;20192;-64
2023/03/13 13:48:24;;;;;;;7.15;1.40;;;;;;;;;;5052813;28;20193;-65
2023/03/13 13:51:09;;;;;;;4.47;1.35;;;;;;;;;;5047532;28;20509;-64
2023/03/13 13:53:53;;;;;;;4.03;1.13;;;;;;;;;;5048202;28;20193;-65
2023/03/13 13:56:29;;;;;;;2.85;0.80;;;;;;;;;;5055586;28;20220;-64
2023/03/13 13:59:11;;;;;;;5.43;1.13;;;;;;;;;;5063415;28;20672;-64
2023/03/13 14:01:39;;;;;;;5.05;0.90;;;;;;;;;;5062937;28;20208;-64
2023/03/13 14:04:14;;;;;;;3.83;1.30;;;;;;;;;;5056288;28;20326;-64
2023/03/13 14:06:43;;;;;;;3.78;1.00;;;;;;;;;;5046382;28;20192;-64
2023/03/13 14:09:18;;;;;;;5.63;0.90;;;;;;;;;;5051201;28;20562;-64
2023/03/13 14:11:44;;;;;;;8.98;1.13;;;;;;;;;;5068891;28;20238;-64
2023/03/13 14:14:18;;;;;;;3.33;1.20;;;;;;;;;;5066003;28;20287;-64
2023/03/13 14:16:46;;;;;;;4.47;1.17;;;;;;;;;;5058811;28;20234;-64
2023/03/13 14:19:22;;;;;;;5.53;1.20;;;;;;;;;;5069900;28;20259;-64
2023/03/13 14:21:48;;;;;;;4.22;1.05;;;;;;;;;;5067210;28;20489;-64
2023/03/13 14:24:14;;;;;;;3.13;1.40;;;;;;;;;;5051773;28;20600;-66
2023/03/13 14:26:43;;;;;;;5.00;1.23;;;;;;;;;;5058036;28;20203;-64
2023/03/13 14:29:16;;;;;;;4.65;1.00;;;;;;;;;;5067244;28;20185;-64
2023/03/13 14:31:50;;;;;;;5.22;1.40;;;;;;;;;;5062864;28;20177;-64
2023/03/13 14:34:16;;;;;;;5.07;1.00;;;;;;;;;;5059195;28;20619;-67
2023/03/13 14:36:46;;;;;;;4.00;0.80;;;;;;;;;;5053008;28;20209;-64
2023/03/13 14:39:20;;;;;;;2.53;0.93;;;;;;;;;;5061985;28;20819;-66
2023/03/13 14:41:48;;;;;;;2.67;0.80;;;;;;;;;;5062480;28;20193;-63
2023/03/13 14:44:24;;;;;;;2.50;1.10;;;;;;;;;;5060807;28;20220;-67
2023/03/13 14:46:55;;;;;;;4.05;1.35;;;;;;;;;;5048731;28;20199;-66
2023/03/13 14:49:24;;;;;;;4.50;1.25;;;;;;;;;;5053270;28;20189;-65
2023/03/13 14:52:05;;;;;;;6.30;1.15;;;;;;;;;;5053560;28;20178;-65
2023/03/13 14:54:33;;;;;;;4.63;0.98;;;;;;;;;;5061524;28;20211;-66
2023/03/13 14:57:04;;;;;;;3.17;1.00;;;;;;;;;;5064403;28;20251;-65